Terminal Aerodrome Forecast
Issued by NWS

Home | Current Version | Previous Version | Text Only | Print | Product List | Glossary Off
Versions: 1 2 3 4 5 6 7 8 9 10 11 12 13 14 15 16 17

000
FTUS43 KTOP 301412 AAB
TAFFOE
TAF AMD
KFOE 301412Z 3014/0112 10011KT P6SM BKN011 BKN035
     FM301600 22011KT P6SM SCT015 BKN040
     FM302100 27009KT P6SM SCT025 BKN040
     FM010600 27010KT P6SM SCT004 BKN012=

USA.gov is the U.S. government's official web portal to all federal, state and local government web resources and services.